Antwerp, Belgium
Current Conditions -  °F | °C
As of 5:50 AM on Thursday 23 Oct 2014 (Local Time) from EBAW Reporting Station
Overcast Overcast  
Wind Chill: 50°   Ceiling: 3100
Heat Index: 50°   Visibility: 6mi
Dew Point: 45°   Wind: 7mph
Humidity: 82%   Direction: 230°SW
Pressure: 30.18"   Gusts: NA
Location:  51.26°N, 4.36°E
Report Text: EBAW 230350Z AUTO 23006KT 9999 OVC031/// 10/07 Q1022
Loading
Personal Weather Stations






























Interactive Weather Map
Tropical Storm Tracking
New forecast layout! Learn more

10-Day Weather Forecast

Advertisements
Track Severe Weather on mobile